Martinborough, New Zealand
Current Conditions -  °F | °C
As of 6:30 PM on Wednesday 28 Jan 2015 (Local Time) from NZWN Reporting Station
Clear Clear  
Wind Chill: 77°   Ceiling: Unl
Heat Index: 79°   Visibility: 6mi
Dew Point: 59°   Wind: 10mph
Humidity: 54%   Direction: 40°NE
Pressure: 29.88"   Gusts: NA
Location:  41.22°S, 175.46°E
Report Text: NZWN 280630Z AUTO 04009KT 010V080 9999 NCD 25/15 Q1012 NOSIG
Loading
Personal Weather Stations






























Interactive Weather Map New forecast layout! Learn more

10-Day Weather Forecast

Advertisements
Track Severe Weather on mobile